createdAt,value
2023-05-19T00:00:33.525Z,9.34
2023-05-19T00:01:33.426Z,9.32
2023-05-19T00:02:33.634Z,9.34
2023-05-19T00:03:33.612Z,9.32
2023-05-19T00:04:33.864Z,9.32
2023-05-19T00:05:33.833Z,9.31
2023-05-19T00:06:33.872Z,9.32
2023-05-19T00:07:33.920Z,9.31
2023-05-19T00:08:33.999Z,9.24
2023-05-19T00:09:34.091Z,9.13
2023-05-19T00:10:34.362Z,9.13
2023-05-19T00:11:34.252Z,9.08
2023-05-19T00:12:34.317Z,9.06
2023-05-19T00:13:34.389Z,9.03
2023-05-19T00:14:34.429Z,9.04
2023-05-19T00:15:34.548Z,9.12
2023-05-19T00:16:34.675Z,9.12
2023-05-19T00:17:34.724Z,9.12
2023-05-19T00:18:34.757Z,9.08
2023-05-19T00:19:34.845Z,9.03
2023-05-19T00:20:34.949Z,9.00
2023-05-19T00:21:35.027Z,9.01
2023-05-19T00:22:35.077Z,9.06
2023-05-19T00:23:35.166Z,9.03
2023-05-19T00:24:35.219Z,9.01
2023-05-19T00:25:35.309Z,8.98
2023-05-19T00:26:35.421Z,8.96
2023-05-19T00:27:35.467Z,8.86
2023-05-19T00:28:35.551Z,8.82
2023-05-19T00:29:35.652Z,8.78
2023-05-19T00:30:35.724Z,8.79
2023-05-19T00:31:35.842Z,8.79
2023-05-19T00:32:35.880Z,8.75
2023-05-19T00:33:35.950Z,8.73
2023-05-19T00:34:36.013Z,8.70
2023-05-19T00:35:36.106Z,8.73
2023-05-19T00:36:36.208Z,8.73
2023-05-19T00:37:36.261Z,8.71
2023-05-19T00:38:36.335Z,8.70
2023-05-19T00:39:36.430Z,8.65
2023-05-19T00:40:36.515Z,8.64
2023-05-19T00:41:36.629Z,8.60
2023-05-19T00:42:36.683Z,8.60
2023-05-19T00:43:36.761Z,8.58
2023-05-19T00:44:36.839Z,8.60
2023-05-19T00:45:36.932Z,8.52
2023-05-19T00:46:37.057Z,8.49
2023-05-19T00:47:37.147Z,8.43
2023-05-19T00:48:37.170Z,8.45
2023-05-19T00:49:37.268Z,8.45
2023-05-19T00:50:37.346Z,8.45
2023-05-19T00:51:37.478Z,8.43
2023-05-19T00:52:37.522Z,8.45
2023-05-19T00:53:37.609Z,8.43
2023-05-19T00:54:37.687Z,8.42
2023-05-19T00:55:37.779Z,8.40
2023-05-19T00:56:37.902Z,8.39
2023-05-19T00:57:37.960Z,8.39
2023-05-19T00:58:38.018Z,8.36
2023-05-19T00:59:38.108Z,8.29
2023-05-19T01:00:38.258Z,8.27
2023-05-19T01:01:38.324Z,8.27
2023-05-19T01:02:38.415Z,8.25
2023-05-19T01:03:38.507Z,8.24
2023-05-19T01:04:38.507Z,8.24
2023-05-19T01:05:38.588Z,8.25
2023-05-19T01:06:38.695Z,8.24
2023-05-19T01:07:38.770Z,8.22
2023-05-19T01:08:38.853Z,8.20
2023-05-19T01:09:38.939Z,8.20
2023-05-19T01:10:39.054Z,8.20
2023-05-19T01:11:39.134Z,8.21
2023-05-19T01:12:39.208Z,8.20
2023-05-19T01:13:41.828Z,8.17
2023-05-19T01:14:39.333Z,8.12
2023-05-19T01:15:39.405Z,8.13
2023-05-19T01:16:39.611Z,8.13
2023-05-19T01:17:39.591Z,8.17
2023-05-19T01:18:39.677Z,8.17
2023-05-19T01:19:39.733Z,8.18
2023-05-19T01:20:39.827Z,8.22
2023-05-19T01:21:39.922Z,8.24
2023-05-19T01:22:39.977Z,8.21
2023-05-19T01:23:40.072Z,8.20
2023-05-19T01:24:40.154Z,8.14
2023-05-19T01:25:40.231Z,8.09
2023-05-19T01:26:40.319Z,8.09
2023-05-19T01:27:40.416Z,8.10
2023-05-19T01:28:40.488Z,8.10
2023-05-19T01:29:40.579Z,8.12
2023-05-19T01:30:40.666Z,8.18
2023-05-19T01:31:40.793Z,8.17
2023-05-19T01:32:40.863Z,8.18
2023-05-19T01:33:40.916Z,8.21
2023-05-19T01:34:40.966Z,8.22
2023-05-19T01:35:41.062Z,8.21
2023-05-19T01:36:41.160Z,8.22
2023-05-19T01:37:41.232Z,8.18
2023-05-19T01:38:41.313Z,8.13
2023-05-19T01:39:41.432Z,8.12
2023-05-19T01:40:41.533Z,8.04
2023-05-19T01:41:41.589Z,7.96
2023-05-19T01:42:41.649Z,8.00
2023-05-19T01:43:41.733Z,8.03
2023-05-19T01:44:41.820Z,8.03
2023-05-19T01:45:41.943Z,8.02
2023-05-19T01:46:42.009Z,7.99
2023-05-19T01:47:42.106Z,7.94
2023-05-19T01:48:42.141Z,7.96
2023-05-19T01:49:42.243Z,7.96
2023-05-19T01:50:42.303Z,7.96
2023-05-19T01:51:42.389Z,7.95
2023-05-19T01:52:42.447Z,7.94
2023-05-19T01:53:42.516Z,7.88
2023-05-19T01:54:42.589Z,7.88
2023-05-19T01:55:42.674Z,7.85
2023-05-19T01:56:42.736Z,7.82
2023-05-19T01:57:42.814Z,7.82
2023-05-19T01:58:42.877Z,7.77
2023-05-19T01:59:42.954Z,7.73
2023-05-19T02:00:43.027Z,7.70
2023-05-19T02:01:43.253Z,7.66
2023-05-19T02:02:43.251Z,7.62
2023-05-19T02:03:43.275Z,7.60
2023-05-19T02:04:43.399Z,7.60
2023-05-19T02:05:43.429Z,7.58
2023-05-19T02:06:43.516Z,7.60
2023-05-19T02:07:43.585Z,7.58
2023-05-19T02:08:43.646Z,7.57
2023-05-19T02:09:43.744Z,7.55
2023-05-19T02:10:43.826Z,7.60
2023-05-19T02:11:43.949Z,7.60
2023-05-19T02:12:43.984Z,7.62
2023-05-19T02:13:44.079Z,7.67
2023-05-19T02:14:44.175Z,7.63
2023-05-19T02:15:44.270Z,7.60
2023-05-19T02:16:44.347Z,7.57
2023-05-19T02:17:44.489Z,7.55
2023-05-19T02:18:44.544Z,7.54
2023-05-19T02:19:44.562Z,7.48
2023-05-19T02:20:44.653Z,7.39
2023-05-19T02:21:44.777Z,7.34
2023-05-19T02:22:44.828Z,7.39
2023-05-19T02:23:44.935Z,7.42
2023-05-19T02:24:44.982Z,7.44
2023-05-19T02:25:45.087Z,7.41
2023-05-19T02:26:45.158Z,7.41
2023-05-19T02:27:45.221Z,7.44
2023-05-19T02:28:45.290Z,7.39
2023-05-19T02:29:45.388Z,7.37
2023-05-19T02:30:45.476Z,7.36
2023-05-19T02:31:45.695Z,7.34
2023-05-19T02:32:45.658Z,7.34
2023-05-19T02:33:45.721Z,7.33
2023-05-19T02:34:45.801Z,7.32
2023-05-19T02:35:45.878Z,7.30
2023-05-19T02:36:46.343Z,7.30
2023-05-19T02:37:46.019Z,7.32
2023-05-19T02:38:46.071Z,7.34
2023-05-19T02:39:46.184Z,7.37
2023-05-19T02:40:46.233Z,7.37
2023-05-19T02:41:46.311Z,7.36
2023-05-19T02:42:46.383Z,7.36
2023-05-19T02:43:46.494Z,7.37
2023-05-19T02:44:46.539Z,7.33
2023-05-19T02:45:46.641Z,7.30
2023-05-19T02:46:46.999Z,7.30
2023-05-19T02:47:46.900Z,7.33
2023-05-19T02:48:46.880Z,7.32
2023-05-19T02:49:46.966Z,7.30
2023-05-19T02:50:47.045Z,7.26
2023-05-19T02:51:47.141Z,7.23
2023-05-19T02:52:47.206Z,7.14
2023-05-19T02:53:47.294Z,7.16
2023-05-19T02:54:47.346Z,7.15
2023-05-19T02:55:47.432Z,7.12
2023-05-19T02:56:47.519Z,7.14
2023-05-19T02:57:47.634Z,7.14
2023-05-19T02:58:47.692Z,7.14
2023-05-19T02:59:47.795Z,7.14
2023-05-19T03:00:47.883Z,7.12
2023-05-19T03:01:48.006Z,7.12
2023-05-19T03:02:48.085Z,7.12
2023-05-19T03:03:48.220Z,7.12
2023-05-19T03:04:48.203Z,7.09
2023-05-19T03:05:48.304Z,7.07
2023-05-19T03:06:48.370Z,7.04
2023-05-19T03:07:48.483Z,6.99
2023-05-19T03:08:48.521Z,6.99
2023-05-19T03:09:48.593Z,6.96
2023-05-19T03:10:48.673Z,6.94
2023-05-19T03:11:48.783Z,6.93
2023-05-19T03:12:48.890Z,6.93
2023-05-19T03:13:48.946Z,6.94
2023-05-19T03:14:49.037Z,6.93
2023-05-19T03:15:49.186Z,6.96
2023-05-19T03:16:49.276Z,6.94
2023-05-19T03:17:49.419Z,6.93
2023-05-19T03:18:49.365Z,6.93
2023-05-19T03:19:49.450Z,6.93
2023-05-19T03:20:49.512Z,6.93
2023-05-19T03:21:49.595Z,6.96
2023-05-19T03:22:49.680Z,6.91
2023-05-19T03:23:49.755Z,6.86
2023-05-19T03:24:49.828Z,6.81
2023-05-19T03:25:49.915Z,6.79
2023-05-19T03:26:49.994Z,6.79
2023-05-19T03:27:50.113Z,6.78
2023-05-19T03:28:50.173Z,6.78
2023-05-19T03:29:50.268Z,6.76
2023-05-19T03:30:50.321Z,6.75
2023-05-19T03:31:50.394Z,6.75
2023-05-19T03:32:50.595Z,6.75
2023-05-19T03:33:50.546Z,6.72
2023-05-19T03:34:50.610Z,6.72
2023-05-19T03:35:50.700Z,6.71
2023-05-19T03:36:50.776Z,6.69
2023-05-19T03:37:50.932Z,6.68
2023-05-19T03:38:50.944Z,6.65
2023-05-19T03:39:51.019Z,6.68
2023-05-19T03:40:51.120Z,6.63
2023-05-19T03:41:51.214Z,6.64
2023-05-19T03:42:51.276Z,6.64
2023-05-19T03:43:51.371Z,6.58
2023-05-19T03:44:51.407Z,6.58
2023-05-19T03:45:51.581Z,6.60
2023-05-19T03:46:51.564Z,6.58
2023-05-19T03:47:51.726Z,6.54
2023-05-19T03:48:51.727Z,6.54
2023-05-19T03:49:51.804Z,6.65
2023-05-19T03:50:51.865Z,6.72
2023-05-19T03:51:51.952Z,6.75
2023-05-19T03:52:52.026Z,6.79
2023-05-19T03:53:52.091Z,6.86
2023-05-19T03:54:52.167Z,6.90
2023-05-19T03:55:52.251Z,6.89
2023-05-19T03:56:52.334Z,6.87
2023-05-19T03:57:52.442Z,6.87
2023-05-19T03:58:52.475Z,6.83
2023-05-19T03:59:52.548Z,6.83
2023-05-19T04:00:52.604Z,6.76
2023-05-19T04:01:52.742Z,6.72
2023-05-19T04:02:52.826Z,6.69
2023-05-19T04:03:52.846Z,6.65
2023-05-19T04:04:53.010Z,6.69
2023-05-19T04:05:53.022Z,6.71
2023-05-19T04:06:53.092Z,6.69
2023-05-19T04:07:53.189Z,6.72
2023-05-19T04:08:53.267Z,6.72
2023-05-19T04:09:53.354Z,6.73
2023-05-19T04:10:53.441Z,6.75
2023-05-19T04:11:53.544Z,6.76
2023-05-19T04:12:53.627Z,6.75
2023-05-19T04:13:53.720Z,6.76
2023-05-19T04:14:53.794Z,6.76
2023-05-19T04:15:53.922Z,6.75
2023-05-19T04:16:53.964Z,6.75
2023-05-19T04:17:54.135Z,6.76
2023-05-19T04:18:54.128Z,6.78
2023-05-19T04:19:54.224Z,6.82
2023-05-19T04:20:54.282Z,6.86
2023-05-19T04:21:54.353Z,6.86
2023-05-19T04:22:54.473Z,6.87
2023-05-19T04:23:54.513Z,6.91
2023-05-19T04:24:54.596Z,6.94
2023-05-19T04:25:54.669Z,6.94
2023-05-19T04:26:54.743Z,6.96
2023-05-19T04:27:54.860Z,7.00
2023-05-19T04:28:54.928Z,6.97
2023-05-19T04:29:55.020Z,6.99
2023-05-19T04:30:55.122Z,6.99
2023-05-19T04:31:55.187Z,6.99
2023-05-19T04:32:55.319Z,7.01
2023-05-19T04:33:55.367Z,7.01
2023-05-19T04:34:55.430Z,7.01
2023-05-19T04:35:55.509Z,6.99
2023-05-19T04:36:55.592Z,6.99
2023-05-19T04:37:55.716Z,7.00
2023-05-19T04:38:55.749Z,6.99
2023-05-19T04:39:55.826Z,7.01
2023-05-19T04:40:55.893Z,7.04
2023-05-19T04:41:55.973Z,7.04
2023-05-19T04:42:56.088Z,7.07
2023-05-19T04:43:56.158Z,7.11
2023-05-19T04:44:56.223Z,7.14
2023-05-19T04:45:56.304Z,7.18
2023-05-19T04:46:56.383Z,7.18
2023-05-19T04:47:56.541Z,7.21
2023-05-19T04:48:56.510Z,7.27
2023-05-19T04:49:56.613Z,7.29
2023-05-19T04:50:56.670Z,7.27
2023-05-19T04:51:56.741Z,7.30
2023-05-19T04:52:56.835Z,7.32
2023-05-19T04:53:56.896Z,7.34
2023-05-19T04:54:56.954Z,7.32
2023-05-19T04:55:57.063Z,7.36
2023-05-19T04:56:57.114Z,7.41
2023-05-19T04:57:57.208Z,7.48
2023-05-19T04:58:57.289Z,7.54
2023-05-19T04:59:57.382Z,7.58
2023-05-19T05:00:57.451Z,7.66
2023-05-19T05:01:57.576Z,7.62
2023-05-19T05:02:57.853Z,7.66
2023-05-19T05:03:57.748Z,7.69
2023-05-19T05:04:57.750Z,7.70
2023-05-19T05:05:57.828Z,7.73
2023-05-19T05:06:57.889Z,7.76
2023-05-19T05:07:57.976Z,7.79
2023-05-19T05:08:58.038Z,7.81
2023-05-19T05:09:58.146Z,7.86
2023-05-19T05:10:58.208Z,7.91
2023-05-19T05:11:58.326Z,7.89
2023-05-19T05:12:58.404Z,7.92
2023-05-19T05:13:58.582Z,7.94
2023-05-19T05:14:58.523Z,7.99
2023-05-19T05:15:58.634Z,8.02
2023-05-19T05:16:58.689Z,8.03
2023-05-19T05:17:58.870Z,8.04
2023-05-19T05:18:58.944Z,8.07
2023-05-19T05:19:58.919Z,8.09
2023-05-19T05:20:59.002Z,8.12
2023-05-19T05:21:59.078Z,8.13
2023-05-19T05:22:59.177Z,8.13
2023-05-19T05:23:59.217Z,8.18
2023-05-19T05:24:59.320Z,8.21
2023-05-19T05:25:59.404Z,8.24
2023-05-19T05:26:59.508Z,8.27
2023-05-19T05:27:59.594Z,8.31
2023-05-19T05:28:59.672Z,8.37
2023-05-19T05:29:59.753Z,8.42
2023-05-19T05:30:59.862Z,8.46
2023-05-19T05:32:00.000Z,8.49
2023-05-19T05:33:00.151Z,8.49
2023-05-19T05:34:00.116Z,8.49
2023-05-19T05:35:00.248Z,8.52
2023-05-19T05:36:00.277Z,8.50
2023-05-19T05:37:00.360Z,8.50
2023-05-19T05:38:00.469Z,8.50
2023-05-19T05:39:00.522Z,8.61
2023-05-19T05:40:00.582Z,8.85
2023-05-19T05:41:00.668Z,9.16
2023-05-19T05:42:00.757Z,9.41
2023-05-19T05:43:00.882Z,9.55
2023-05-19T05:44:00.933Z,9.70
2023-05-19T05:45:01.019Z,9.83
2023-05-19T05:46:01.132Z,10.07
2023-05-19T05:47:01.203Z,10.39
2023-05-19T05:48:01.444Z,10.69
2023-05-19T05:49:01.337Z,11.05
2023-05-19T05:50:01.383Z,11.41
2023-05-19T05:51:01.489Z,11.64
2023-05-19T05:52:06.166Z,11.98
2023-05-19T05:53:01.664Z,12.30
2023-05-19T05:54:01.705Z,12.61
2023-05-19T05:55:01.824Z,12.94
2023-05-19T05:56:01.859Z,13.36
2023-05-19T05:57:01.939Z,13.80
2023-05-19T05:58:02.015Z,14.23
2023-05-19T05:59:02.084Z,14.56
2023-05-19T06:00:02.124Z,14.61
2023-05-19T06:01:02.210Z,14.91
2023-05-19T06:02:02.368Z,15.18
2023-05-19T06:03:02.430Z,15.55
2023-05-19T06:04:02.405Z,15.78
2023-05-19T06:05:02.594Z,15.89
2023-05-19T06:06:02.552Z,16.07
2023-05-19T06:07:02.647Z,16.44
2023-05-19T06:08:02.715Z,16.82
2023-05-19T06:09:02.806Z,17.18
2023-05-19T06:10:02.840Z,17.62
2023-05-19T06:11:02.938Z,17.91
2023-05-19T06:12:03.007Z,18.09
2023-05-19T06:13:03.128Z,18.36
2023-05-19T06:14:03.159Z,18.64
2023-05-19T06:15:03.263Z,18.72
2023-05-19T06:16:03.361Z,18.89
2023-05-19T06:17:03.407Z,19.15
2023-05-19T06:18:03.642Z,19.32
2023-05-19T06:19:03.675Z,19.65
2023-05-19T06:20:03.669Z,19.94
2023-05-19T06:21:03.802Z,20.12
2023-05-19T06:22:03.859Z,20.20
2023-05-19T06:23:03.952Z,20.27
2023-05-19T06:24:04.012Z,20.48
2023-05-19T06:25:04.131Z,20.25
2023-05-19T06:26:04.180Z,20.40
2023-05-19T06:27:04.279Z,20.01
2023-05-19T06:28:04.393Z,19.98
2023-05-19T06:29:04.462Z,19.79
2023-05-19T06:30:04.499Z,19.95
2023-05-19T06:31:04.628Z,20.41
2023-05-19T06:32:04.644Z,20.82
2023-05-19T06:33:04.791Z,21.19
2023-05-19T06:34:04.799Z,21.55
2023-05-19T06:35:04.910Z,21.74
2023-05-19T06:36:04.955Z,21.93
2023-05-19T06:37:05.048Z,21.89
2023-05-19T06:38:05.126Z,21.86
2023-05-19T06:39:05.183Z,21.81
2023-05-19T06:40:05.242Z,21.90
2023-05-19T06:41:05.336Z,21.70
2023-05-19T06:42:05.421Z,21.98
2023-05-19T06:43:05.566Z,22.35
2023-05-19T06:44:05.679Z,22.66
2023-05-19T06:45:05.708Z,23.04
2023-05-19T06:46:05.724Z,23.35
2023-05-19T06:47:06.189Z,23.31
2023-05-19T06:48:05.973Z,22.81
2023-05-19T06:49:05.986Z,22.94
2023-05-19T06:50:06.094Z,23.16
2023-05-19T06:51:06.155Z,23.50
2023-05-19T06:52:06.209Z,23.53
2023-05-19T06:53:06.307Z,23.74
2023-05-19T06:54:06.382Z,24.12
2023-05-19T06:55:06.435Z,24.59
2023-05-19T06:56:06.503Z,25.07
2023-05-19T06:57:06.582Z,25.08
2023-05-19T06:58:06.702Z,24.52
2023-05-19T06:59:06.770Z,24.37
2023-05-19T07:00:06.820Z,24.55
2023-05-19T07:01:06.929Z,24.80
2023-05-19T07:02:07.062Z,25.02
2023-05-19T07:03:07.151Z,24.56
2023-05-19T07:04:07.314Z,24.36
2023-05-19T07:05:07.223Z,24.66
2023-05-19T07:06:08.362Z,24.94
2023-05-19T07:07:07.401Z,24.97
2023-05-19T07:08:07.493Z,24.97
2023-05-19T07:09:07.562Z,24.70
2023-05-19T07:10:07.672Z,24.82
2023-05-19T07:11:07.750Z,25.20
2023-05-19T07:12:07.852Z,25.12
2023-05-19T07:13:07.982Z,25.26
2023-05-19T07:14:08.026Z,25.56
2023-05-19T07:15:08.123Z,26.09
2023-05-19T07:16:08.234Z,26.12
2023-05-19T07:17:08.302Z,26.29
2023-05-19T07:18:08.468Z,26.41
2023-05-19T07:19:08.576Z,25.97
2023-05-19T07:20:08.598Z,26.35
2023-05-19T07:21:08.684Z,26.39
2023-05-19T07:22:08.754Z,26.54
2023-05-19T07:23:08.872Z,26.84
2023-05-19T07:24:08.938Z,27.24
2023-05-19T07:25:09.033Z,27.33
2023-05-19T07:26:09.104Z,27.63
2023-05-19T07:27:09.180Z,27.63
2023-05-19T07:28:09.300Z,27.68
2023-05-19T07:29:09.373Z,27.98
2023-05-19T07:30:09.417Z,27.88
2023-05-19T07:31:09.491Z,28.05
2023-05-19T07:32:09.674Z,28.13
2023-05-19T07:33:09.726Z,28.60
2023-05-19T07:34:09.725Z,28.70
2023-05-19T07:35:09.795Z,28.89
2023-05-19T07:36:09.855Z,29.03
2023-05-19T07:37:09.971Z,29.03
2023-05-19T07:38:10.045Z,29.03
2023-05-19T07:39:10.159Z,28.92
2023-05-19T07:40:10.229Z,29.02
2023-05-19T07:41:10.312Z,29.12
2023-05-19T07:42:10.408Z,28.69
2023-05-19T07:43:10.502Z,28.87
2023-05-19T07:44:10.575Z,29.18
2023-05-19T07:45:10.650Z,29.54
2023-05-19T07:46:10.797Z,29.14
2023-05-19T07:47:10.810Z,28.94
2023-05-19T07:48:10.910Z,28.95
2023-05-19T07:49:10.937Z,28.94
2023-05-19T07:50:10.993Z,28.73
2023-05-19T07:51:11.069Z,29.12
2023-05-19T07:52:11.145Z,29.21
2023-05-19T07:53:11.266Z,29.37
2023-05-19T07:54:11.318Z,28.91
2023-05-19T07:55:11.391Z,29.11
2023-05-19T07:56:11.466Z,29.33
2023-05-19T07:57:11.557Z,29.64
2023-05-19T07:58:11.663Z,29.62
2023-05-19T07:59:11.773Z,29.49
2023-05-19T08:00:11.823Z,29.08
2023-05-19T08:01:11.894Z,29.48
2023-05-19T08:02:11.998Z,29.52
2023-05-19T08:03:12.193Z,29.94
2023-05-19T08:04:13.077Z,30.49
2023-05-19T08:05:12.183Z,30.06
2023-05-19T08:06:12.245Z,29.92
2023-05-19T08:07:12.340Z,29.23
2023-05-19T08:08:12.429Z,28.58
2023-05-19T08:09:12.466Z,28.97
2023-05-19T08:10:12.556Z,29.15
2023-05-19T08:11:12.650Z,29.39
2023-05-19T08:12:12.742Z,29.81
2023-05-19T08:13:12.863Z,30.06
2023-05-19T08:14:12.895Z,29.99
2023-05-19T08:15:12.990Z,30.30
2023-05-19T08:16:13.126Z,30.00
2023-05-19T08:17:13.136Z,30.01
2023-05-19T08:18:13.301Z,30.23
2023-05-19T08:19:13.442Z,30.28
2023-05-19T08:20:13.377Z,30.32
2023-05-19T08:21:13.479Z,30.21
2023-05-19T08:22:13.563Z,30.25
2023-05-19T08:23:13.682Z,30.19
2023-05-19T08:24:13.717Z,30.46
2023-05-19T08:25:13.871Z,30.86
2023-05-19T08:26:13.892Z,30.57
2023-05-19T08:27:13.988Z,29.84
2023-05-19T08:28:14.099Z,29.66
2023-05-19T08:29:14.157Z,29.49
2023-05-19T08:30:14.256Z,29.76
2023-05-19T08:31:14.348Z,29.91
2023-05-19T08:32:14.375Z,30.01
2023-05-19T08:33:14.517Z,30.53
2023-05-19T08:34:14.546Z,30.70
2023-05-19T08:35:14.643Z,31.09
2023-05-19T08:36:14.698Z,31.41
2023-05-19T08:37:14.797Z,31.16
2023-05-19T08:38:14.867Z,31.46
2023-05-19T08:39:14.923Z,31.98
2023-05-19T08:40:15.018Z,32.02
2023-05-19T08:41:15.113Z,31.49
2023-05-19T08:42:15.198Z,31.85
2023-05-19T08:43:15.357Z,32.25
2023-05-19T08:44:17.559Z,32.73
2023-05-19T08:45:15.487Z,32.84
2023-05-19T08:46:15.540Z,32.90
2023-05-19T08:47:15.622Z,31.87
2023-05-19T08:48:15.713Z,30.48
2023-05-19T08:49:15.793Z,29.67
2023-05-19T08:50:15.844Z,29.00
2023-05-19T08:51:15.943Z,29.23
2023-05-19T08:52:16.020Z,29.76
2023-05-19T08:53:31.823Z,30.10
2023-05-19T08:54:16.182Z,29.89
2023-05-19T08:55:16.279Z,29.63
2023-05-19T08:56:16.361Z,28.73
2023-05-19T08:57:16.445Z,28.77
2023-05-19T08:58:16.564Z,28.89
2023-05-19T08:59:16.617Z,29.00
2023-05-19T09:00:16.660Z,29.44
2023-05-19T09:01:17.029Z,30.13
2023-05-19T09:02:16.800Z,30.67
2023-05-19T09:03:22.778Z,30.68
2023-05-19T09:04:17.096Z,31.03
2023-05-19T09:05:17.062Z,31.22
2023-05-19T09:06:17.123Z,31.20
2023-05-19T09:07:17.203Z,31.62
2023-05-19T09:08:17.284Z,31.69
2023-05-19T09:09:17.358Z,31.25
2023-05-19T09:10:17.375Z,31.28
2023-05-19T09:11:17.496Z,31.10
2023-05-19T09:12:17.530Z,30.93
2023-05-19T09:13:17.660Z,30.13
2023-05-19T09:14:17.709Z,29.54
2023-05-19T09:15:17.807Z,29.67
2023-05-19T09:16:17.944Z,30.37
2023-05-19T09:17:17.938Z,30.97
2023-05-19T09:18:18.044Z,30.76
2023-05-19T09:19:18.165Z,30.59
2023-05-19T09:20:18.201Z,30.40
2023-05-19T09:21:18.268Z,30.21
2023-05-19T09:22:18.324Z,30.18
2023-05-19T09:23:18.451Z,30.16
2023-05-19T09:24:18.493Z,30.37
2023-05-19T09:25:18.592Z,30.73
2023-05-19T09:26:18.669Z,30.83
2023-05-19T09:27:18.767Z,30.82
2023-05-19T09:28:18.880Z,30.63
2023-05-19T09:29:18.945Z,30.18
2023-05-19T09:30:19.035Z,30.49
2023-05-19T09:31:19.088Z,30.72
2023-05-19T09:32:19.225Z,30.85
2023-05-19T09:33:19.298Z,30.70
2023-05-19T09:34:19.295Z,30.79
2023-05-19T09:35:19.371Z,31.13
2023-05-19T09:36:19.476Z,30.86
2023-05-19T09:37:19.546Z,31.07
2023-05-19T09:38:19.703Z,30.91
2023-05-19T09:39:19.723Z,30.56
2023-05-19T09:40:19.802Z,30.67
2023-05-19T09:41:19.867Z,30.22
2023-05-19T09:42:19.951Z,29.08
2023-05-19T09:43:20.051Z,28.87
2023-05-19T09:44:20.118Z,28.52
2023-05-19T09:45:20.191Z,28.11
2023-05-19T09:46:20.330Z,28.11
2023-05-19T09:47:20.340Z,26.24
2023-05-19T09:48:20.463Z,25.57
2023-05-19T09:49:20.522Z,25.91
2023-05-19T09:50:20.620Z,26.53
2023-05-19T09:51:20.700Z,27.18
2023-05-19T09:52:20.800Z,27.69
2023-05-19T09:53:20.902Z,28.20
2023-05-19T09:54:20.997Z,28.03
2023-05-19T09:55:21.053Z,28.45
2023-05-19T09:56:21.155Z,28.62
2023-05-19T09:57:21.240Z,28.98
2023-05-19T09:58:21.358Z,28.72
2023-05-19T09:59:21.428Z,29.35
2023-05-19T10:00:21.515Z,29.99
2023-05-19T10:01:21.630Z,29.85
2023-05-19T10:02:21.696Z,29.89
2023-05-19T10:03:21.785Z,29.70
2023-05-19T10:04:22.227Z,29.41
2023-05-19T10:05:21.990Z,28.65
2023-05-19T10:06:22.035Z,28.35
2023-05-19T10:07:22.131Z,28.32
2023-05-19T10:08:22.247Z,28.43
2023-05-19T10:09:22.285Z,28.23
2023-05-19T10:10:22.384Z,28.40
2023-05-19T10:11:22.470Z,28.55
2023-05-19T10:12:22.560Z,28.74
2023-05-19T10:13:22.675Z,29.12
2023-05-19T10:14:22.747Z,29.18
2023-05-19T10:15:23.446Z,28.64
2023-05-19T10:16:22.984Z,28.61
2023-05-19T10:17:23.007Z,28.35
2023-05-19T10:18:23.125Z,28.64
2023-05-19T10:19:23.220Z,28.35
2023-05-19T10:20:23.242Z,27.58
2023-05-19T10:21:23.292Z,26.76
2023-05-19T10:22:23.392Z,26.73
2023-05-19T10:23:23.512Z,26.96
2023-05-19T10:24:23.548Z,26.93
2023-05-19T10:25:23.628Z,26.66
2023-05-19T10:26:23.698Z,26.61
2023-05-19T10:27:23.784Z,26.44
2023-05-19T10:28:23.909Z,26.23
2023-05-19T10:29:23.956Z,26.23
2023-05-19T10:30:24.052Z,26.41
2023-05-19T10:31:24.139Z,26.20
2023-05-19T10:32:24.305Z,26.36
2023-05-19T10:33:24.534Z,26.54
2023-05-19T10:34:24.384Z,26.32
2023-05-19T10:35:24.478Z,26.11
2023-05-19T10:36:24.581Z,25.93
2023-05-19T10:37:24.648Z,25.79
2023-05-19T10:38:24.763Z,25.63
2023-05-19T10:39:24.816Z,24.87
2023-05-19T10:40:24.916Z,24.66
2023-05-19T10:41:24.983Z,24.70
2023-05-19T10:42:25.092Z,24.67
2023-05-19T10:43:25.155Z,24.87
2023-05-19T10:44:25.253Z,25.02
2023-05-19T10:45:25.303Z,24.94
2023-05-19T10:46:25.512Z,24.55
2023-05-19T10:47:25.549Z,24.30
2023-05-19T10:48:25.584Z,24.15
2023-05-19T10:49:25.660Z,24.19
2023-05-19T10:50:25.731Z,24.02
2023-05-19T10:51:25.818Z,23.78
2023-05-19T10:52:26.310Z,23.72
2023-05-19T10:53:25.986Z,23.79
2023-05-19T10:54:26.065Z,23.67
2023-05-19T10:55:26.132Z,23.47
2023-05-19T10:56:26.235Z,23.41
2023-05-19T10:57:26.284Z,23.31
2023-05-19T10:58:26.626Z,23.42
2023-05-19T10:59:27.867Z,23.57
2023-05-19T11:00:26.497Z,23.59
2023-05-19T11:01:26.615Z,23.53
2023-05-19T11:02:26.774Z,23.26
2023-05-19T11:03:26.775Z,23.26
2023-05-19T11:04:27.003Z,23.45
2023-05-19T11:05:26.910Z,23.57
2023-05-19T11:06:27.019Z,23.67
2023-05-19T11:07:27.086Z,23.68
2023-05-19T11:08:27.192Z,23.52
2023-05-19T11:09:37.956Z,23.37
2023-05-19T11:10:27.364Z,23.39
2023-05-19T11:11:27.453Z,22.99
2023-05-19T11:12:27.536Z,22.96
2023-05-19T11:14:27.727Z,22.88
2023-05-19T11:15:27.828Z,22.88
2023-05-19T11:16:27.960Z,23.00
2023-05-19T11:17:28.000Z,22.78
2023-05-19T11:18:28.068Z,22.82
2023-05-19T11:19:28.254Z,23.00
2023-05-19T11:20:28.213Z,23.26
2023-05-19T11:21:28.383Z,23.44
2023-05-19T11:22:28.415Z,23.62
2023-05-19T11:23:28.497Z,23.57
2023-05-19T11:24:28.578Z,23.69
2023-05-19T11:25:28.632Z,23.89
2023-05-19T11:26:28.736Z,24.04
2023-05-19T11:27:28.825Z,24.16
2023-05-19T11:28:28.942Z,23.96
2023-05-19T11:29:28.987Z,23.79
2023-05-19T11:30:29.090Z,23.72
2023-05-19T11:31:29.176Z,23.54
2023-05-19T11:32:29.328Z,23.39
2023-05-19T11:33:29.375Z,23.18
2023-05-19T11:34:29.418Z,23.04
2023-05-19T11:35:29.530Z,23.11
2023-05-19T11:36:29.581Z,23.15
2023-05-19T11:37:29.681Z,23.25
2023-05-19T11:38:29.785Z,23.25
2023-05-19T11:39:29.856Z,23.16
2023-05-19T11:40:29.940Z,23.07
2023-05-19T11:41:30.019Z,23.09
2023-05-19T11:42:30.110Z,23.04
2023-05-19T11:43:30.218Z,23.03
2023-05-19T11:44:30.273Z,23.18
2023-05-19T11:45:30.432Z,23.31
2023-05-19T11:46:30.497Z,23.23
2023-05-19T11:47:32.015Z,23.25
2023-05-19T11:48:30.748Z,23.19
2023-05-19T11:49:30.691Z,23.00
2023-05-19T11:50:30.783Z,22.64
2023-05-19T11:51:30.847Z,22.38
2023-05-19T11:52:30.944Z,22.21
2023-05-19T11:54:31.096Z,22.09
2023-05-19T11:55:31.187Z,21.99
2023-05-19T11:56:31.259Z,22.01
2023-05-19T11:57:31.328Z,21.96
2023-05-19T11:58:31.443Z,21.74
2023-05-19T11:59:32.784Z,21.64
2023-05-19T12:00:31.558Z,21.70
2023-05-19T12:01:31.650Z,21.73
2023-05-19T12:02:31.837Z,21.77
2023-05-19T12:03:31.885Z,21.38
2023-05-19T12:04:31.967Z,21.21
2023-05-19T12:05:34.483Z,21.15
2023-05-19T12:06:32.145Z,21.11
2023-05-19T12:07:32.126Z,21.12
2023-05-19T12:08:32.305Z,21.19
2023-05-19T12:09:32.286Z,21.31
2023-05-19T12:10:32.382Z,21.48
2023-05-19T12:11:32.446Z,21.26
2023-05-19T12:12:32.542Z,20.97
2023-05-19T12:13:32.636Z,20.87
2023-05-19T12:14:32.700Z,20.97
2023-05-19T12:15:32.935Z,21.18
2023-05-19T12:16:33.615Z,21.42
2023-05-19T12:17:32.929Z,21.64
2023-05-19T12:18:32.988Z,21.81
2023-05-19T12:19:33.079Z,21.91
2023-05-19T12:20:33.130Z,21.99
2023-05-19T12:21:33.643Z,22.05
2023-05-19T12:22:33.313Z,22.12
2023-05-19T12:23:33.426Z,22.08
2023-05-19T12:24:33.485Z,21.96
2023-05-19T12:25:33.889Z,21.79
2023-05-19T12:26:33.635Z,21.70
2023-05-19T12:27:34.839Z,21.71
2023-05-19T12:28:33.829Z,21.68
2023-05-19T12:29:33.894Z,21.73
2023-05-19T12:30:34.934Z,21.91
2023-05-19T12:31:34.134Z,22.01
2023-05-19T12:32:34.177Z,22.11
2023-05-19T12:33:35.665Z,22.09
2023-05-19T12:34:34.274Z,22.02
2023-05-19T12:35:34.430Z,21.94
2023-05-19T12:36:34.418Z,21.79
2023-05-19T12:37:34.474Z,21.70
2023-05-19T12:38:34.582Z,21.67
2023-05-19T12:39:34.648Z,21.61
2023-05-19T12:40:35.096Z,21.51
2023-05-19T12:41:34.767Z,21.48
2023-05-19T12:42:34.866Z,21.55
2023-05-19T12:43:34.955Z,21.61
2023-05-19T12:44:35.010Z,21.71
2023-05-19T12:45:35.123Z,21.59
2023-05-19T12:46:35.169Z,21.42
2023-05-19T12:47:35.274Z,21.38
2023-05-19T12:48:35.343Z,21.38
2023-05-19T12:49:35.405Z,21.43
2023-05-19T12:50:35.809Z,21.51
2023-05-19T12:51:35.539Z,21.56
2023-05-19T12:52:35.644Z,21.61
2023-05-19T12:53:35.704Z,21.64
2023-05-19T12:54:35.872Z,21.68
2023-05-19T12:55:35.857Z,21.66
2023-05-19T12:56:35.964Z,21.64
2023-05-19T12:57:36.013Z,21.64
2023-05-19T12:58:36.117Z,21.67
2023-05-19T12:59:38.877Z,21.74
2023-05-19T13:00:36.523Z,21.73
2023-05-19T13:01:36.343Z,21.75
2023-05-19T13:02:36.588Z,21.75
2023-05-19T13:03:36.560Z,21.52
2023-05-19T13:04:36.542Z,21.43
2023-05-19T13:05:36.605Z,21.43
2023-05-19T13:06:36.784Z,21.45